Perryville, MD (21903)

2:12 PM EDT on September 16, 2014 (GMT -0400)
TOP OF THE BAY N3OBQ | Change Station
CLOSE
Current Station
Personal Weather Station
Location: PERRYVILLE, MD
Elevation: 125 ft
Nearby Weather Stations

Elev 125 ft 39.57 °N, 76.07 °W | Updated 13 seconds ago

Mostly Cloudy
Mostly Cloudy
71.1 °F
Feels Like 75 °F
N
6.9
Wind Variable Wind from NNE
Gusts 6.9 mph

Today
High -- | Low -- °F
--% Chance of Precip.
Yesterday
High -- | Low -- °F
Precip. -- in
6:46 AM 7:11 PM
Last Quarter, 43% visible
Pressure 30.01 in
Visibility 7.0 miles
Clouds Mostly Cloudy 3000 ft
Heat Index 75 °F
Dew Point 60 °F
Humidity 68%
Rainfall 0.01 in
Snow Depth Not available.
UV 4 out of 12
Pollen 4.10 out of 12
Air Quality Not available.
Flu Activity Not available.
METAR KAPG 161654Z 36008KT 7SM BKN030 23/13 A3001

More Conditions Fewer Conditions

Pressure 30.01 in
Visibility 7.0 miles
Clouds Mostly Cloudy 3000 ft
Heat Index 75 °F
Dew Point 60 °F
Humidity 68%
Rainfall 0.01 in
Snow Depth Not available.
UV 4 out of 12
Pollen 4.10 out of 12
Air Quality Not available.
Flu Activity Not available.
METAR KAPG 161654Z 36008KT 7SM BKN030 23/13 A3001

More Conditions Fewer Conditions

10-Day Weather Forecast

Almanac

Astronomy

Sep. 16, 2014 Rise Set
Actual Time 6:46 AM EDT 7:11 PM EDT
Civil Twilight 6:19 AM EDT 7:38 PM EDT
Nautical Twilight 5:47 AM EDT 8:09 PM EDT
Astronomical Twilight 5:14 AM EDT 8:42 PM EDT
Moon No Moon Rise 2:32 PM EDT
Length of Visible Light 13h 18m
Length of Day
12h 24m
Tomorrow will be 2m 33s shorter.
Last Quarter, 43% of the Moon is Illuminated
Today
Last Quarter
Sep 24
New
Oct 1
First Quarter
Oct 8
Full
Oct 15
Last Quarter

Today's Extremes

State Highs State Lows

Community

WunderPhotos

Upload Photos

1,753,850 photos uploaded!

Nearby

Snow Depth

Station Depth Elevation
No new snow has been reported.

Earthquake Activity

City Distance Mag. Time & Date
No recent earthquake activity has been reported nearby.
Minimum magnitude displayed is 2.5.

Coastal Water Temperatures

Place Temperature
Tolchester Beach, MD 73.9 °F
Chesapeake City, MD 73.9 °F
Baltimore, MD 78.1 °F

Nearby Weather Stations